sensor_id;sensor_type;location;lat;lon;timestamp;temperature;humidity
77582;DHT22;66726;52.388;9.986;2023-05-23T00:01:00;18.30;99.90
77582;DHT22;66726;52.388;9.986;2023-05-23T00:03:35;18.10;99.90
77582;DHT22;66726;52.388;9.986;2023-05-23T00:06:10;18.10;99.90
77582;DHT22;66726;52.388;9.986;2023-05-23T00:08:43;18.20;99.90
77582;DHT22;66726;52.388;9.986;2023-05-23T00:11:17;18.10;99.90
77582;DHT22;66726;52.388;9.986;2023-05-23T00:13:55;18.10;99.90
77582;DHT22;66726;52.388;9.986;2023-05-23T00:16:31;18.00;99.90
77582;DHT22;66726;52.388;9.986;2023-05-23T00:19:04;18.10;99.90
77582;DHT22;66726;52.388;9.986;2023-05-23T00:21:38;18.10;99.90
77582;DHT22;66726;52.388;9.986;2023-05-23T00:24:12;18.00;99.90
77582;DHT22;66726;52.388;9.986;2023-05-23T00:26:48;17.90;99.90
77582;DHT22;66726;52.388;9.986;2023-05-23T00:29:21;17.90;99.90
77582;DHT22;66726;52.388;9.986;2023-05-23T00:31:54;17.80;99.90
77582;DHT22;66726;52.388;9.986;2023-05-23T00:34:28;17.80;99.90
77582;DHT22;66726;52.388;9.986;2023-05-23T00:37:01;17.90;99.90
77582;DHT22;66726;52.388;9.986;2023-05-23T00:39:35;17.90;99.90
77582;DHT22;66726;52.388;9.986;2023-05-23T00:42:09;17.70;99.90
77582;DHT22;66726;52.388;9.986;2023-05-23T00:44:42;17.80;99.90
77582;DHT22;66726;52.388;9.986;2023-05-23T00:47:17;17.70;99.90
77582;DHT22;66726;52.388;9.986;2023-05-23T00:49:51;17.60;99.90
77582;DHT22;66726;52.388;9.986;2023-05-23T00:52:25;17.60;99.90
77582;DHT22;66726;52.388;9.986;2023-05-23T00:54:58;17.60;99.90
77582;DHT22;66726;52.388;9.986;2023-05-23T00:57:32;17.70;99.90
77582;DHT22;66726;52.388;9.986;2023-05-23T01:00:11;17.70;99.90
77582;DHT22;66726;52.388;9.986;2023-05-23T01:02:47;17.70;99.90
77582;DHT22;66726;52.388;9.986;2023-05-23T01:05:23;17.70;99.90
77582;DHT22;66726;52.388;9.986;2023-05-23T01:07:56;17.80;99.90
77582;DHT22;66726;52.388;9.986;2023-05-23T01:10:33;17.60;99.90
77582;DHT22;66726;52.388;9.986;2023-05-23T01:13:21;17.60;99.90
77582;DHT22;66726;52.388;9.986;2023-05-23T01:16:04;17.60;99.90
77582;DHT22;66726;52.388;9.986;2023-05-23T01:18:47;17.70;99.90
77582;DHT22;66726;52.388;9.986;2023-05-23T01:21:27;17.60;99.90
77582;DHT22;66726;52.388;9.986;2023-05-23T01:24:31;17.70;99.90
77582;DHT22;66726;52.388;9.986;2023-05-23T01:27:26;17.70;99.90
77582;DHT22;66726;52.388;9.986;2023-05-23T01:30:13;17.50;99.90
77582;DHT22;66726;52.388;9.986;2023-05-23T01:32:52;17.40;99.90
77582;DHT22;66726;52.388;9.986;2023-05-23T01:35:27;17.30;99.90
77582;DHT22;66726;52.388;9.986;2023-05-23T01:38:02;17.30;99.90
77582;DHT22;66726;52.388;9.986;2023-05-23T01:40:35;17.00;99.90
77582;DHT22;66726;52.388;9.986;2023-05-23T01:43:09;17.00;99.90
77582;DHT22;66726;52.388;9.986;2023-05-23T01:45:43;16.90;99.90
77582;DHT22;66726;52.388;9.986;2023-05-23T01:48:17;16.80;99.90
77582;DHT22;66726;52.388;9.986;2023-05-23T01:50:53;16.80;99.90
77582;DHT22;66726;52.388;9.986;2023-05-23T01:53:29;16.80;99.90
77582;DHT22;66726;52.388;9.986;2023-05-23T01:56:04;16.60;99.90
77582;DHT22;66726;52.388;9.986;2023-05-23T01:58:37;16.60;99.90
77582;DHT22;66726;52.388;9.986;2023-05-23T02:01:12;16.50;99.90
77582;DHT22;66726;52.388;9.986;2023-05-23T02:03:47;16.60;99.90
77582;DHT22;66726;52.388;9.986;2023-05-23T02:06:20;16.70;99.90
77582;DHT22;66726;52.388;9.986;2023-05-23T02:08:53;16.70;99.90
77582;DHT22;66726;52.388;9.986;2023-05-23T02:11:27;16.70;99.90
77582;DHT22;66726;52.388;9.986;2023-05-23T02:14:00;16.60;99.90
77582;DHT22;66726;52.388;9.986;2023-05-23T02:16:33;16.50;99.90
77582;DHT22;66726;52.388;9.986;2023-05-23T02:19:07;16.50;99.90
77582;DHT22;66726;52.388;9.986;2023-05-23T02:21:40;16.30;99.90
77582;DHT22;66726;52.388;9.986;2023-05-23T02:24:13;16.30;99.90
77582;DHT22;66726;52.388;9.986;2023-05-23T02:26:48;16.30;99.90
77582;DHT22;66726;52.388;9.986;2023-05-23T02:29:21;16.30;99.90
77582;DHT22;66726;52.388;9.986;2023-05-23T02:31:55;16.30;99.90
77582;DHT22;66726;52.388;9.986;2023-05-23T02:34:28;16.20;99.90
77582;DHT22;66726;52.388;9.986;2023-05-23T02:37:02;16.10;99.90
77582;DHT22;66726;52.388;9.986;2023-05-23T02:39:37;16.20;99.90
77582;DHT22;66726;52.388;9.986;2023-05-23T02:42:11;16.20;99.90
77582;DHT22;66726;52.388;9.986;2023-05-23T02:44:44;16.10;99.90
77582;DHT22;66726;52.388;9.986;2023-05-23T02:47:17;16.10;99.90
77582;DHT22;66726;52.388;9.986;2023-05-23T02:49:51;16.20;99.90
77582;DHT22;66726;52.388;9.986;2023-05-23T02:52:25;16.10;99.90
77582;DHT22;66726;52.388;9.986;2023-05-23T02:54:58;16.00;99.90
77582;DHT22;66726;52.388;9.986;2023-05-23T02:57:32;16.10;99.90
77582;DHT22;66726;52.388;9.986;2023-05-23T03:00:07;16.00;99.90
77582;DHT22;66726;52.388;9.986;2023-05-23T03:02:42;15.80;99.90
77582;DHT22;66726;52.388;9.986;2023-05-23T03:05:16;15.90;99.90
77582;DHT22;66726;52.388;9.986;2023-05-23T03:07:49;15.90;99.90
77582;DHT22;66726;52.388;9.986;2023-05-23T03:10:23;15.80;99.90
77582;DHT22;66726;52.388;9.986;2023-05-23T03:12:57;15.80;99.90
77582;DHT22;66726;52.388;9.986;2023-05-23T03:15:30;15.80;99.90
77582;DHT22;66726;52.388;9.986;2023-05-23T03:18:03;15.50;99.90
77582;DHT22;66726;52.388;9.986;2023-05-23T03:20:37;15.60;99.90
77582;DHT22;66726;52.388;9.986;2023-05-23T03:23:11;15.60;99.90
77582;DHT22;66726;52.388;9.986;2023-05-23T03:25:44;15.70;99.90
77582;DHT22;66726;52.388;9.986;2023-05-23T03:28:17;15.70;99.90
77582;DHT22;66726;52.388;9.986;2023-05-23T03:30:51;15.70;99.90
77582;DHT22;66726;52.388;9.986;2023-05-23T03:33:24;15.90;99.90
77582;DHT22;66726;52.388;9.986;2023-05-23T03:35:57;15.80;99.90
77582;DHT22;66726;52.388;9.986;2023-05-23T03:38:31;15.70;99.90
77582;DHT22;66726;52.388;9.986;2023-05-23T03:41:04;15.80;99.90
77582;DHT22;66726;52.388;9.986;2023-05-23T03:43:38;15.70;99.90
77582;DHT22;66726;52.388;9.986;2023-05-23T03:46:11;15.70;99.90
77582;DHT22;66726;52.388;9.986;2023-05-23T03:48:45;15.70;99.90
77582;DHT22;66726;52.388;9.986;2023-05-23T03:51:18;15.70;99.90
77582;DHT22;66726;52.388;9.986;2023-05-23T03:53:53;15.60;99.90
77582;DHT22;66726;52.388;9.986;2023-05-23T03:56:27;15.50;99.90
77582;DHT22;66726;52.388;9.986;2023-05-23T03:59:00;15.40;99.90
77582;DHT22;66726;52.388;9.986;2023-05-23T04:01:33;15.40;99.90
77582;DHT22;66726;52.388;9.986;2023-05-23T04:04:08;15.40;99.90
77582;DHT22;66726;52.388;9.986;2023-05-23T04:06:42;15.40;99.90
77582;DHT22;66726;52.388;9.986;2023-05-23T04:09:16;15.40;99.90
77582;DHT22;66726;52.388;9.986;2023-05-23T04:11:49;15.40;99.90
77582;DHT22;66726;52.388;9.986;2023-05-23T04:14:23;15.50;99.90
77582;DHT22;66726;52.388;9.986;2023-05-23T04:16:56;15.40;99.90
77582;DHT22;66726;52.388;9.986;2023-05-23T04:19:30;15.60;99.90
77582;DHT22;66726;52.388;9.986;2023-05-23T04:22:04;15.50;99.90
77582;DHT22;66726;52.388;9.986;2023-05-23T04:24:37;15.60;99.90
77582;DHT22;66726;52.388;9.986;2023-05-23T04:27:11;15.50;99.90
77582;DHT22;66726;52.388;9.986;2023-05-23T04:29:45;15.50;99.90
77582;DHT22;66726;52.388;9.986;2023-05-23T04:32:18;15.50;99.90
77582;DHT22;66726;52.388;9.986;2023-05-23T04:34:52;15.50;99.90
77582;DHT22;66726;52.388;9.986;2023-05-23T04:37:27;15.30;99.90
77582;DHT22;66726;52.388;9.986;2023-05-23T04:40:02;15.40;99.90
77582;DHT22;66726;52.388;9.986;2023-05-23T04:42:36;15.40;99.90
77582;DHT22;66726;52.388;9.986;2023-05-23T04:45:12;15.30;99.90
77582;DHT22;66726;52.388;9.986;2023-05-23T04:47:45;15.20;99.90
77582;DHT22;66726;52.388;9.986;2023-05-23T04:50:19;15.20;99.90
77582;DHT22;66726;52.388;9.986;2023-05-23T04:52:52;15.20;99.90
77582;DHT22;66726;52.388;9.986;2023-05-23T04:55:26;15.10;99.90
77582;DHT22;66726;52.388;9.986;2023-05-23T04:58:00;15.20;99.90
77582;DHT22;66726;52.388;9.986;2023-05-23T05:00:33;15.20;99.90
77582;DHT22;66726;52.388;9.986;2023-05-23T05:03:07;15.10;99.90
77582;DHT22;66726;52.388;9.986;2023-05-23T05:05:41;15.10;99.90
77582;DHT22;66726;52.388;9.986;2023-05-23T05:08:14;15.10;99.90
77582;DHT22;66726;52.388;9.986;2023-05-23T05:10:48;15.10;99.90
77582;DHT22;66726;52.388;9.986;2023-05-23T05:13:22;15.10;99.90
77582;DHT22;66726;52.388;9.986;2023-05-23T05:15:55;15.10;99.90
77582;DHT22;66726;52.388;9.986;2023-05-23T05:18:29;15.10;99.90
77582;DHT22;66726;52.388;9.986;2023-05-23T05:21:04;15.20;99.90
77582;DHT22;66726;52.388;9.986;2023-05-23T05:23:37;15.00;99.90
77582;DHT22;66726;52.388;9.986;2023-05-23T05:26:11;14.90;99.90
77582;DHT22;66726;52.388;9.986;2023-05-23T05:28:44;14.90;99.90
77582;DHT22;66726;52.388;9.986;2023-05-23T05:31:18;15.00;99.90
77582;DHT22;66726;52.388;9.986;2023-05-23T05:33:51;15.00;99.90
77582;DHT22;66726;52.388;9.986;2023-05-23T05:36:25;14.90;99.90
77582;DHT22;66726;52.388;9.986;2023-05-23T05:38:58;14.80;99.90
77582;DHT22;66726;52.388;9.986;2023-05-23T05:41:32;14.70;99.90
77582;DHT22;66726;52.388;9.986;2023-05-23T05:44:05;14.70;99.90
77582;DHT22;66726;52.388;9.986;2023-05-23T05:46:39;14.80;99.90
77582;DHT22;66726;52.388;9.986;2023-05-23T05:49:13;14.70;99.90
77582;DHT22;66726;52.388;9.986;2023-05-23T05:51:46;14.70;99.90
77582;DHT22;66726;52.388;9.986;2023-05-23T05:54:20;14.70;99.90
77582;DHT22;66726;52.388;9.986;2023-05-23T05:56:54;14.70;99.90
77582;DHT22;66726;52.388;9.986;2023-05-23T05:59:27;14.70;99.90
77582;DHT22;66726;52.388;9.986;2023-05-23T06:02:01;14.90;99.90
77582;DHT22;66726;52.388;9.986;2023-05-23T06:04:35;14.90;99.90
77582;DHT22;66726;52.388;9.986;2023-05-23T06:07:09;14.90;99.90
77582;DHT22;66726;52.388;9.986;2023-05-23T06:09:42;15.00;99.90
77582;DHT22;66726;52.388;9.986;2023-05-23T06:12:15;14.90;99.90
77582;DHT22;66726;52.388;9.986;2023-05-23T06:14:49;14.80;99.90
77582;DHT22;66726;52.388;9.986;2023-05-23T06:17:22;14.90;99.90
77582;DHT22;66726;52.388;9.986;2023-05-23T06:19:55;14.80;99.90
77582;DHT22;66726;52.388;9.986;2023-05-23T06:22:29;14.70;99.90
77582;DHT22;66726;52.388;9.986;2023-05-23T06:25:03;14.80;99.90
77582;DHT22;66726;52.388;9.986;2023-05-23T06:27:37;14.90;99.90
77582;DHT22;66726;52.388;9.986;2023-05-23T06:30:13;14.80;99.90
77582;DHT22;66726;52.388;9.986;2023-05-23T06:32:47;14.70;99.90
77582;DHT22;66726;52.388;9.986;2023-05-23T06:35:20;14.70;99.90
77582;DHT22;66726;52.388;9.986;2023-05-23T06:37:53;14.80;99.90
77582;DHT22;66726;52.388;9.986;2023-05-23T06:40:27;14.80;99.90
77582;DHT22;66726;52.388;9.986;2023-05-23T06:43:00;14.80;99.90
77582;DHT22;66726;52.388;9.986;2023-05-23T06:45:33;14.70;99.90
77582;DHT22;66726;52.388;9.986;2023-05-23T06:48:07;14.80;99.90
77582;DHT22;66726;52.388;9.986;2023-05-23T06:50:41;14.70;99.90
77582;DHT22;66726;52.388;9.986;2023-05-23T06:53:14;14.80;99.90
77582;DHT22;66726;52.388;9.986;2023-05-23T06:55:48;14.70;99.90
77582;DHT22;66726;52.388;9.986;2023-05-23T06:58:23;14.70;99.90
77582;DHT22;66726;52.388;9.986;2023-05-23T07:00:57;14.80;99.90
77582;DHT22;66726;52.388;9.986;2023-05-23T07:03:30;14.70;99.90
77582;DHT22;66726;52.388;9.986;2023-05-23T07:06:03;14.80;99.90
77582;DHT22;66726;52.388;9.986;2023-05-23T07:08:37;14.70;99.90
77582;DHT22;66726;52.388;9.986;2023-05-23T07:11:11;14.80;99.90
77582;DHT22;66726;52.388;9.986;2023-05-23T07:13:44;14.70;99.90
77582;DHT22;66726;52.388;9.986;2023-05-23T07:16:17;14.70;99.90
77582;DHT22;66726;52.388;9.986;2023-05-23T07:18:51;14.70;99.90
77582;DHT22;66726;52.388;9.986;2023-05-23T07:21:24;14.60;99.90
77582;DHT22;66726;52.388;9.986;2023-05-23T07:23:57;14.70;99.90
77582;DHT22;66726;52.388;9.986;2023-05-23T07:26:31;14.70;99.90
77582;DHT22;66726;52.388;9.986;2023-05-23T07:29:04;14.70;99.90
77582;DHT22;66726;52.388;9.986;2023-05-23T07:31:37;14.70;99.90
77582;DHT22;66726;52.388;9.986;2023-05-23T07:34:11;14.80;99.90
77582;DHT22;66726;52.388;9.986;2023-05-23T07:36:44;14.70;99.90
77582;DHT22;66726;52.388;9.986;2023-05-23T07:39:19;14.70;99.90
77582;DHT22;66726;52.388;9.986;2023-05-23T07:41:53;14.50;99.90
77582;DHT22;66726;52.388;9.986;2023-05-23T07:44:27;14.50;99.90
77582;DHT22;66726;52.388;9.986;2023-05-23T07:47:00;14.60;99.90
77582;DHT22;66726;52.388;9.986;2023-05-23T07:49:34;14.60;99.90
77582;DHT22;66726;52.388;9.986;2023-05-23T07:52:07;14.60;99.90
77582;DHT22;66726;52.388;9.986;2023-05-23T07:54:40;14.60;99.90
77582;DHT22;66726;52.388;9.986;2023-05-23T07:57:14;14.60;99.90
77582;DHT22;66726;52.388;9.986;2023-05-23T07:59:47;14.60;99.90
77582;DHT22;66726;52.388;9.986;2023-05-23T08:02:21;14.60;99.90
77582;DHT22;66726;52.388;9.986;2023-05-23T08:04:55;14.50;99.90
77582;DHT22;66726;52.388;9.986;2023-05-23T08:07:29;14.50;99.90
77582;DHT22;66726;52.388;9.986;2023-05-23T08:10:02;14.30;99.90
77582;DHT22;66726;52.388;9.986;2023-05-23T08:12:36;14.30;99.90
77582;DHT22;66726;52.388;9.986;2023-05-23T08:15:11;14.30;99.90
77582;DHT22;66726;52.388;9.986;2023-05-23T08:17:44;14.30;99.90
77582;DHT22;66726;52.388;9.986;2023-05-23T08:20:18;14.20;99.90
77582;DHT22;66726;52.388;9.986;2023-05-23T08:22:51;14.20;99.90
77582;DHT22;66726;52.388;9.986;2023-05-23T08:25:27;14.10;99.90
77582;DHT22;66726;52.388;9.986;2023-05-23T08:28:01;14.20;99.90
77582;DHT22;66726;52.388;9.986;2023-05-23T08:30:35;14.20;99.90
77582;DHT22;66726;52.388;9.986;2023-05-23T08:33:08;14.20;99.90
77582;DHT22;66726;52.388;9.986;2023-05-23T08:35:42;14.10;99.90
77582;DHT22;66726;52.388;9.986;2023-05-23T08:38:15;14.20;99.90
77582;DHT22;66726;52.388;9.986;2023-05-23T08:40:52;14.20;99.90
77582;DHT22;66726;52.388;9.986;2023-05-23T08:43:30;14.20;99.90
77582;DHT22;66726;52.388;9.986;2023-05-23T08:46:04;14.20;99.90
77582;DHT22;66726;52.388;9.986;2023-05-23T08:48:39;14.00;99.90
77582;DHT22;66726;52.388;9.986;2023-05-23T08:51:16;14.00;99.90
77582;DHT22;66726;52.388;9.986;2023-05-23T08:53:51;13.90;99.90
77582;DHT22;66726;52.388;9.986;2023-05-23T08:56:26;13.90;99.90
77582;DHT22;66726;52.388;9.986;2023-05-23T08:59:00;13.90;99.90
77582;DHT22;66726;52.388;9.986;2023-05-23T09:01:36;14.00;99.90
77582;DHT22;66726;52.388;9.986;2023-05-23T09:04:11;14.00;99.90
77582;DHT22;66726;52.388;9.986;2023-05-23T09:06:45;13.90;99.90
77582;DHT22;66726;52.388;9.986;2023-05-23T09:09:18;13.90;99.90
77582;DHT22;66726;52.388;9.986;2023-05-23T09:11:53;13.90;99.90
77582;DHT22;66726;52.388;9.986;2023-05-23T09:14:28;13.90;99.90
77582;DHT22;66726;52.388;9.986;2023-05-23T09:17:06;13.90;99.90
77582;DHT22;66726;52.388;9.986;2023-05-23T09:19:43;13.90;99.90
77582;DHT22;66726;52.388;9.986;2023-05-23T09:22:16;13.90;99.90
77582;DHT22;66726;52.388;9.986;2023-05-23T09:24:57;13.90;99.90
77582;DHT22;66726;52.388;9.986;2023-05-23T09:27:30;13.80;99.90
77582;DHT22;66726;52.388;9.986;2023-05-23T09:30:09;13.80;99.90
77582;DHT22;66726;52.388;9.986;2023-05-23T09:32:58;13.70;99.90
77582;DHT22;66726;52.388;9.986;2023-05-23T09:35:34;13.60;99.90
77582;DHT22;66726;52.388;9.986;2023-05-23T09:38:13;13.50;99.90
77582;DHT22;66726;52.388;9.986;2023-05-23T09:40:47;13.50;99.90
77582;DHT22;66726;52.388;9.986;2023-05-23T09:43:22;13.60;99.90
77582;DHT22;66726;52.388;9.986;2023-05-23T09:45:56;13.60;99.90
77582;DHT22;66726;52.388;9.986;2023-05-23T09:48:37;13.60;99.90
77582;DHT22;66726;52.388;9.986;2023-05-23T09:51:19;13.60;99.90
77582;DHT22;66726;52.388;9.986;2023-05-23T09:53:54;13.50;99.90
77582;DHT22;66726;52.388;9.986;2023-05-23T09:56:27;13.50;99.90
77582;DHT22;66726;52.388;9.986;2023-05-23T09:59:04;13.50;99.90
77582;DHT22;66726;52.388;9.986;2023-05-23T10:01:41;13.50;99.90
77582;DHT22;66726;52.388;9.986;2023-05-23T10:04:22;13.50;99.90
77582;DHT22;66726;52.388;9.986;2023-05-23T10:07:06;13.40;99.90
77582;DHT22;66726;52.388;9.986;2023-05-23T10:09:49;13.40;99.90
77582;DHT22;66726;52.388;9.986;2023-05-23T10:12:44;13.40;99.90
77582;DHT22;66726;52.388;9.986;2023-05-23T10:15:23;13.30;99.90
77582;DHT22;66726;52.388;9.986;2023-05-23T10:18:08;13.30;99.90
77582;DHT22;66726;52.388;9.986;2023-05-23T10:20:48;13.30;99.90
77582;DHT22;66726;52.388;9.986;2023-05-23T10:23:28;13.20;99.90
77582;DHT22;66726;52.388;9.986;2023-05-23T10:26:04;13.20;99.90
77582;DHT22;66726;52.388;9.986;2023-05-23T10:28:38;13.30;99.90
77582;DHT22;66726;52.388;9.986;2023-05-23T10:31:13;13.20;99.90
77582;DHT22;66726;52.388;9.986;2023-05-23T10:33:51;13.30;99.90
77582;DHT22;66726;52.388;9.986;2023-05-23T10:36:32;13.20;99.90
77582;DHT22;66726;52.388;9.986;2023-05-23T10:39:19;13.10;99.90
77582;DHT22;66726;52.388;9.986;2023-05-23T10:42:02;13.20;99.90
77582;DHT22;66726;52.388;9.986;2023-05-23T10:44:41;13.10;99.90
77582;DHT22;66726;52.388;9.986;2023-05-23T10:47:26;13.20;99.90
77582;DHT22;66726;52.388;9.986;2023-05-23T10:50:01;13.10;99.90
77582;DHT22;66726;52.388;9.986;2023-05-23T10:52:40;13.10;99.90
77582;DHT22;66726;52.388;9.986;2023-05-23T10:55:18;13.10;99.90
77582;DHT22;66726;52.388;9.986;2023-05-23T10:58:14;13.20;99.90
77582;DHT22;66726;52.388;9.986;2023-05-23T11:00:56;13.20;99.90
77582;DHT22;66726;52.388;9.986;2023-05-23T11:03:37;13.20;99.90
77582;DHT22;66726;52.388;9.986;2023-05-23T11:06:36;13.20;99.90
77582;DHT22;66726;52.388;9.986;2023-05-23T11:09:14;13.20;99.90
77582;DHT22;66726;52.388;9.986;2023-05-23T11:11:58;13.00;99.90
77582;DHT22;66726;52.388;9.986;2023-05-23T11:14:53;13.00;99.90
77582;DHT22;66726;52.388;9.986;2023-05-23T11:17:33;13.00;99.90
77582;DHT22;66726;52.388;9.986;2023-05-23T11:20:08;13.10;99.90
77582;DHT22;66726;52.388;9.986;2023-05-23T11:22:59;13.20;99.90
77582;DHT22;66726;52.388;9.986;2023-05-23T11:25:43;13.00;99.90
77582;DHT22;66726;52.388;9.986;2023-05-23T11:28:18;13.10;99.90
77582;DHT22;66726;52.388;9.986;2023-05-23T11:30:53;13.00;99.90
77582;DHT22;66726;52.388;9.986;2023-05-23T11:33:26;13.00;99.90
77582;DHT22;66726;52.388;9.986;2023-05-23T11:36:02;13.00;99.90
77582;DHT22;66726;52.388;9.986;2023-05-23T11:38:39;13.00;99.90
77582;DHT22;66726;52.388;9.986;2023-05-23T11:41:12;13.00;99.90
77582;DHT22;66726;52.388;9.986;2023-05-23T11:43:52;13.00;99.90
77582;DHT22;66726;52.388;9.986;2023-05-23T11:46:28;12.90;99.90
77582;DHT22;66726;52.388;9.986;2023-05-23T11:49:04;12.90;99.90
77582;DHT22;66726;52.388;9.986;2023-05-23T11:51:42;12.90;99.90
77582;DHT22;66726;52.388;9.986;2023-05-23T11:54:16;12.90;99.90
77582;DHT22;66726;52.388;9.986;2023-05-23T11:56:53;12.90;99.90
77582;DHT22;66726;52.388;9.986;2023-05-23T11:59:28;12.90;99.90
77582;DHT22;66726;52.388;9.986;2023-05-23T12:02:04;13.00;99.90
77582;DHT22;66726;52.388;9.986;2023-05-23T12:04:38;13.00;99.90
77582;DHT22;66726;52.388;9.986;2023-05-23T12:07:11;13.10;99.90
77582;DHT22;66726;52.388;9.986;2023-05-23T12:09:49;13.10;99.90
77582;DHT22;66726;52.388;9.986;2023-05-23T12:12:25;13.10;99.90
77582;DHT22;66726;52.388;9.986;2023-05-23T12:15:02;13.00;99.90
77582;DHT22;66726;52.388;9.986;2023-05-23T12:17:37;13.10;99.90
77582;DHT22;66726;52.388;9.986;2023-05-23T12:20:14;13.10;99.90
77582;DHT22;66726;52.388;9.986;2023-05-23T12:22:47;13.20;99.90
77582;DHT22;66726;52.388;9.986;2023-05-23T12:25:20;13.30;99.90
77582;DHT22;66726;52.388;9.986;2023-05-23T12:27:55;13.40;99.90
77582;DHT22;66726;52.388;9.986;2023-05-23T12:30:29;13.50;99.90
77582;DHT22;66726;52.388;9.986;2023-05-23T12:33:13;13.50;99.90
77582;DHT22;66726;52.388;9.986;2023-05-23T12:35:48;13.60;99.90
77582;DHT22;66726;52.388;9.986;2023-05-23T12:38:21;13.60;99.90
77582;DHT22;66726;52.388;9.986;2023-05-23T12:41:15;13.60;99.90
77582;DHT22;66726;52.388;9.986;2023-05-23T12:43:53;13.70;99.90
77582;DHT22;66726;52.388;9.986;2023-05-23T12:46:28;13.80;99.90
77582;DHT22;66726;52.388;9.986;2023-05-23T12:49:02;13.90;99.90
77582;DHT22;66726;52.388;9.986;2023-05-23T12:51:35;13.90;99.90
77582;DHT22;66726;52.388;9.986;2023-05-23T12:54:09;14.00;99.90
77582;DHT22;66726;52.388;9.986;2023-05-23T12:56:42;13.90;99.90
77582;DHT22;66726;52.388;9.986;2023-05-23T12:59:16;13.80;99.90
77582;DHT22;66726;52.388;9.986;2023-05-23T13:01:49;13.90;99.90
77582;DHT22;66726;52.388;9.986;2023-05-23T13:04:23;13.80;99.60
77582;DHT22;66726;52.388;9.986;2023-05-23T13:06:58;13.90;99.90
77582;DHT22;66726;52.388;9.986;2023-05-23T13:09:32;13.90;99.70
77582;DHT22;66726;52.388;9.986;2023-05-23T13:12:06;13.90;99.40
77582;DHT22;66726;52.388;9.986;2023-05-23T13:14:42;13.90;99.50
77582;DHT22;66726;52.388;9.986;2023-05-23T13:17:15;13.90;99.90
77582;DHT22;66726;52.388;9.986;2023-05-23T13:19:50;13.90;99.30
77582;DHT22;66726;52.388;9.986;2023-05-23T13:22:23;14.00;99.00
77582;DHT22;66726;52.388;9.986;2023-05-23T13:24:56;14.00;98.40
77582;DHT22;66726;52.388;9.986;2023-05-23T13:27:29;14.20;98.30
77582;DHT22;66726;52.388;9.986;2023-05-23T13:30:03;14.40;97.90
77582;DHT22;66726;52.388;9.986;2023-05-23T13:32:38;14.50;96.80
77582;DHT22;66726;52.388;9.986;2023-05-23T13:35:13;14.50;96.10
77582;DHT22;66726;52.388;9.986;2023-05-23T13:37:48;14.50;96.10
77582;DHT22;66726;52.388;9.986;2023-05-23T13:40:23;14.60;95.60
77582;DHT22;66726;52.388;9.986;2023-05-23T13:42:56;14.70;95.50
77582;DHT22;66726;52.388;9.986;2023-05-23T13:45:29;14.70;94.90
77582;DHT22;66726;52.388;9.986;2023-05-23T13:48:03;14.70;95.20
77582;DHT22;66726;52.388;9.986;2023-05-23T13:50:36;14.70;96.00
77582;DHT22;66726;52.388;9.986;2023-05-23T13:53:10;14.70;96.10
77582;DHT22;66726;52.388;9.986;2023-05-23T13:55:45;14.70;95.20
77582;DHT22;66726;52.388;9.986;2023-05-23T13:58:19;14.70;94.90
77582;DHT22;66726;52.388;9.986;2023-05-23T14:00:53;14.70;94.60
77582;DHT22;66726;52.388;9.986;2023-05-23T14:03:26;14.70;94.50
77582;DHT22;66726;52.388;9.986;2023-05-23T14:06:00;14.80;94.30
77582;DHT22;66726;52.388;9.986;2023-05-23T14:08:34;14.90;94.30
77582;DHT22;66726;52.388;9.986;2023-05-23T14:11:07;15.00;94.00
77582;DHT22;66726;52.388;9.986;2023-05-23T14:13:41;15.00;93.70
77582;DHT22;66726;52.388;9.986;2023-05-23T14:16:14;15.00;93.90
77582;DHT22;66726;52.388;9.986;2023-05-23T14:18:47;15.00;93.20
77582;DHT22;66726;52.388;9.986;2023-05-23T14:21:22;15.00;93.00
77582;DHT22;66726;52.388;9.986;2023-05-23T14:23:55;15.10;93.10
77582;DHT22;66726;52.388;9.986;2023-05-23T14:26:28;15.20;93.10
77582;DHT22;66726;52.388;9.986;2023-05-23T14:29:01;15.10;92.80
77582;DHT22;66726;52.388;9.986;2023-05-23T14:31:35;15.10;92.10
77582;DHT22;66726;52.388;9.986;2023-05-23T14:34:09;15.30;92.50
77582;DHT22;66726;52.388;9.986;2023-05-23T14:36:42;15.30;91.10
77582;DHT22;66726;52.388;9.986;2023-05-23T14:39:15;15.50;91.60
77582;DHT22;66726;52.388;9.986;2023-05-23T14:41:49;15.60;91.30
77582;DHT22;66726;52.388;9.986;2023-05-23T14:44:22;15.50;90.50
77582;DHT22;66726;52.388;9.986;2023-05-23T14:46:57;15.60;91.30
77582;DHT22;66726;52.388;9.986;2023-05-23T14:49:30;15.60;90.90
77582;DHT22;66726;52.388;9.986;2023-05-23T14:52:03;15.60;91.40
77582;DHT22;66726;52.388;9.986;2023-05-23T14:54:36;15.70;91.10
77582;DHT22;66726;52.388;9.986;2023-05-23T14:57:10;15.60;91.80
77582;DHT22;66726;52.388;9.986;2023-05-23T14:59:44;15.60;91.40
77582;DHT22;66726;52.388;9.986;2023-05-23T15:02:17;15.50;90.10
77582;DHT22;66726;52.388;9.986;2023-05-23T15:04:50;15.40;90.60
77582;DHT22;66726;52.388;9.986;2023-05-23T15:07:24;15.50;90.50
77582;DHT22;66726;52.388;9.986;2023-05-23T15:09:57;15.70;90.90
77582;DHT22;66726;52.388;9.986;2023-05-23T15:12:31;15.80;90.60
77582;DHT22;66726;52.388;9.986;2023-05-23T15:15:05;15.80;89.60
77582;DHT22;66726;52.388;9.986;2023-05-23T15:17:40;15.70;88.50
77582;DHT22;66726;52.388;9.986;2023-05-23T15:20:15;15.70;89.10
77582;DHT22;66726;52.388;9.986;2023-05-23T15:22:49;15.60;89.90
77582;DHT22;66726;52.388;9.986;2023-05-23T15:25:22;15.60;90.50
77582;DHT22;66726;52.388;9.986;2023-05-23T15:28:16;15.40;88.40
77582;DHT22;66726;52.388;9.986;2023-05-23T15:30:50;15.30;88.50
77582;DHT22;66726;52.388;9.986;2023-05-23T15:33:26;15.50;90.10
77582;DHT22;66726;52.388;9.986;2023-05-23T15:35:59;15.60;89.60
77582;DHT22;66726;52.388;9.986;2023-05-23T15:38:32;15.80;90.10
77582;DHT22;66726;52.388;9.986;2023-05-23T15:41:05;15.80;88.50
77582;DHT22;66726;52.388;9.986;2023-05-23T15:43:40;15.70;88.00
77582;DHT22;66726;52.388;9.986;2023-05-23T15:46:14;15.70;87.70
77582;DHT22;66726;52.388;9.986;2023-05-23T15:48:47;15.60;87.50
77582;DHT22;66726;52.388;9.986;2023-05-23T15:51:20;15.60;88.20
77582;DHT22;66726;52.388;9.986;2023-05-23T15:53:54;15.40;88.00
77582;DHT22;66726;52.388;9.986;2023-05-23T15:56:30;15.10;87.80
77582;DHT22;66726;52.388;9.986;2023-05-23T15:59:03;15.00;88.00
77582;DHT22;66726;52.388;9.986;2023-05-23T16:01:38;15.00;89.60
77582;DHT22;66726;52.388;9.986;2023-05-23T16:04:11;15.10;90.00
77582;DHT22;66726;52.388;9.986;2023-05-23T16:06:45;14.90;89.30
77582;DHT22;66726;52.388;9.986;2023-05-23T16:09:18;14.90;88.80
77582;DHT22;66726;52.388;9.986;2023-05-23T16:11:51;14.80;88.00
77582;DHT22;66726;52.388;9.986;2023-05-23T16:14:25;14.80;88.60
77582;DHT22;66726;52.388;9.986;2023-05-23T16:17:00;14.80;88.80
77582;DHT22;66726;52.388;9.986;2023-05-23T16:19:36;14.80;88.20